Terminal Aerodrome Forecast
Issued by NWS

Home | Current Version | Previous Version | Text Only | Print | Product List | Glossary On
Versions: 1 2 3 4 5 6 7 8 9 10 11 12 13 14 15
000
FTUS43 KDTX 030140 AAA
TAFDET
TAF AMD
KDET 030140Z 0302/0324 05015KT P6SM BKN070 OVC150
      TEMPO 0303/0305 2SM TSRA BKN035CB OVC070
     FM030500 19008KT P6SM -SHRA BKN045
     FM030700 25010KT 6SM BR BKN035
     FM031200 29012KT P6SM SCT050=

USA.gov is the U.S. government's official web portal to all federal, state and local government web resources and services.